createdAt,value
2017-09-18T04:26:08.116Z,82.21
2017-09-18T04:26:24.393Z,84.56
2017-09-18T04:26:59.734Z,85.04
2017-09-18T04:27:13.879Z,85.10
2017-09-18T04:27:26.385Z,85.00
2017-09-18T04:27:55.816Z,84.79
2017-09-18T04:28:15.425Z,85.01
2017-09-18T04:28:32.434Z,85.70
2017-09-18T04:29:05.569Z,84.92
2017-09-18T04:29:27.142Z,85.48
2017-09-18T04:29:48.055Z,84.97
2017-09-18T04:30:12.135Z,84.84
2017-09-18T04:30:29.603Z,85.40
2017-09-18T04:30:55.092Z,85.41
2017-09-18T04:31:30.026Z,85.62
2017-09-18T04:32:05.907Z,85.07
2017-09-18T04:33:06.912Z,84.93
2017-09-18T04:39:27.098Z,85.85
2017-09-18T04:40:05.730Z,85.25
2017-09-18T04:40:21.971Z,85.50
2017-09-18T04:40:35.342Z,85.32
2017-09-18T04:40:43.991Z,85.92
2017-09-18T04:41:05.624Z,85.40
2017-09-18T04:41:22.328Z,85.22
2017-09-18T04:41:44.287Z,85.38
2017-09-18T04:41:58.613Z,85.18
2017-09-18T04:42:26.761Z,85.03
2017-09-18T04:42:36.327Z,85.40
2017-09-18T04:42:49.668Z,85.16
2017-09-18T04:43:11.733Z,85.40
2017-09-18T04:43:34.649Z,85.91
2017-09-18T04:43:50.259Z,85.07
2017-09-18T04:43:57.889Z,85.52
2017-09-18T04:44:12.617Z,85.97
2017-09-18T04:44:41.554Z,85.96
2017-09-18T04:44:50.142Z,86.03
2017-09-18T04:45:06.197Z,86.20
2017-09-18T04:45:14.027Z,86.05
2017-09-18T04:45:31.704Z,85.08
2017-09-18T04:45:54.151Z,86.38
2017-09-18T04:46:10.821Z,86.11
2017-09-18T04:46:36.443Z,85.51
2017-09-18T04:46:52.919Z,84.93
2017-09-18T04:47:04.416Z,85.31
2017-09-18T04:47:18.988Z,85.35
2017-09-18T04:47:38.090Z,85.69
2017-09-18T04:47:53.128Z,86.27
2017-09-18T04:48:04.997Z,85.71
2017-09-18T04:48:35.273Z,85.47
2017-09-18T04:49:03.647Z,86.21
2017-09-18T04:49:18.826Z,86.61
2017-09-18T04:49:26.737Z,86.87
2017-09-18T04:49:42.415Z,86.35
2017-09-18T04:49:50.469Z,86.84
2017-09-18T04:49:58.788Z,87.03
2017-09-18T04:50:06.916Z,87.10
2017-09-18T04:50:14.682Z,86.25
2017-09-18T04:50:22.815Z,86.99
2017-09-18T04:50:39.550Z,86.24
2017-09-18T04:51:00.548Z,86.33
2017-09-18T04:51:21.313Z,86.63
2017-09-18T04:51:29.045Z,86.94
2017-09-18T04:51:45.910Z,87.09
2017-09-18T04:51:54.340Z,87.06
2017-09-18T04:52:09.478Z,87.31
2017-09-18T04:52:19.994Z,87.54
2017-09-18T04:55:54.960Z,87.35
2017-09-18T04:57:23.444Z,87.99
2017-09-18T04:59:11.809Z,87.30
2017-09-18T05:03:41.414Z,87.97
2017-09-18T05:03:49.264Z,88.29
2017-09-18T05:04:11.834Z,87.75
2017-09-18T05:04:19.553Z,88.20
2017-09-18T05:04:27.501Z,87.75
2017-09-18T05:04:35.624Z,87.68
2017-09-18T05:04:52.038Z,87.34
2017-09-18T05:05:18.510Z,88.32
2017-09-18T05:05:32.659Z,88.43
2017-09-18T05:05:41.425Z,87.82
2017-09-18T05:05:57.142Z,88.38
2017-09-18T05:06:06.778Z,88.58
2017-09-18T05:06:16.448Z,88.72
2017-09-18T05:06:27.982Z,88.45
2017-09-18T05:06:40.682Z,87.65
2017-09-18T05:06:57.630Z,88.62
2017-09-18T05:07:21.981Z,87.64
2017-09-18T05:07:29.421Z,88.66
2017-09-18T05:07:37.745Z,87.78
2017-09-18T05:07:54.975Z,88.33
2017-09-18T05:08:08.574Z,87.98
2017-09-18T05:08:25.925Z,88.78
2017-09-18T05:08:44.505Z,88.82
2017-09-18T05:09:03.041Z,88.17
2017-09-18T05:09:10.485Z,88.30
2017-09-18T05:09:18.813Z,88.00
2017-09-18T05:09:33.577Z,88.92
2017-09-18T05:09:41.113Z,88.43
2017-09-18T05:09:56.602Z,88.04
2017-09-18T05:10:04.825Z,88.07
2017-09-18T05:10:23.482Z,88.52
2017-09-18T05:10:31.333Z,88.04
2017-09-18T05:10:39.682Z,88.35
2017-09-18T05:10:54.033Z,88.35
2017-09-18T05:11:01.765Z,89.03
2017-09-18T05:11:09.722Z,88.40
2017-09-18T05:11:25.161Z,88.20
2017-09-18T05:11:33.614Z,88.28
2017-09-18T05:11:41.934Z,88.22
2017-09-18T05:11:49.882Z,89.13
2017-09-18T05:12:14.265Z,88.27
2017-09-18T05:12:29.631Z,88.33
2017-09-18T05:13:00.609Z,89.16
2017-09-18T05:13:08.721Z,89.09
2017-09-18T05:13:16.657Z,88.04
2017-09-18T05:13:30.533Z,88.40
2017-09-18T05:13:38.961Z,88.28
2017-09-18T05:13:46.915Z,88.29
2017-09-18T05:13:55.053Z,88.45
2017-09-18T05:14:03.376Z,88.32
2017-09-18T05:14:11.317Z,88.54
2017-09-18T05:14:19.449Z,89.38
2017-09-18T05:14:27.790Z,89.67
2017-09-18T05:14:40.862Z,89.68
2017-09-18T05:14:48.281Z,88.83
2017-09-18T05:14:56.401Z,89.05
2017-09-18T05:15:13.708Z,88.93
2017-09-18T05:15:38.842Z,89.18
2017-09-18T05:15:52.125Z,89.50
2017-09-18T05:16:22.281Z,89.07
2017-09-18T05:16:49.953Z,89.41
2017-09-18T05:17:07.570Z,88.94
2017-09-18T05:17:24.135Z,89.67
2017-09-18T05:17:40.147Z,88.71
2017-09-18T05:17:48.087Z,89.08
2017-09-18T05:18:03.466Z,89.10
2017-09-18T05:18:21.246Z,89.05
2017-09-18T05:18:37.469Z,89.26
2017-09-18T05:18:58.373Z,89.42
2017-09-18T05:19:06.801Z,88.79
2017-09-18T05:19:31.161Z,89.42
2017-09-18T05:19:44.445Z,89.49
2017-09-18T05:19:58.831Z,89.47
2017-09-18T05:20:20.649Z,88.93
2017-09-18T05:20:35.543Z,89.08
2017-09-18T05:20:50.497Z,88.96
2017-09-18T05:21:05.083Z,89.81
2017-09-18T05:21:13.311Z,89.41
2017-09-18T05:21:21.242Z,88.98
2017-09-18T05:21:36.685Z,89.52
2017-09-18T05:21:45.121Z,89.13
2017-09-18T05:22:04.494Z,89.35
2017-09-18T05:22:11.853Z,89.22
2017-09-18T05:22:20.182Z,88.96
2017-09-18T05:22:28.141Z,89.25
2017-09-18T05:22:43.275Z,89.16
2017-09-18T05:22:55.575Z,89.39
2017-09-18T05:23:13.414Z,89.23
2017-09-18T05:23:21.360Z,89.07
2017-09-18T05:23:35.229Z,89.51
2017-09-18T05:23:43.455Z,89.16
2017-09-18T05:24:04.529Z,89.61
2017-09-18T05:24:18.745Z,89.06
2017-09-18T05:24:33.421Z,90.10
2017-09-18T05:24:42.627Z,89.39
2017-09-18T05:24:50.198Z,89.75
2017-09-18T05:25:14.787Z,89.26
2017-09-18T05:25:22.091Z,89.30
2017-09-18T05:25:40.238Z,89.63
2017-09-18T05:25:49.182Z,90.00
2017-09-18T05:26:10.981Z,90.07
2017-09-18T05:26:18.927Z,89.48
2017-09-18T05:26:34.482Z,90.32
2017-09-18T05:26:47.563Z,89.46
2017-09-18T05:26:55.185Z,90.28
2017-09-18T05:27:03.478Z,89.31
2017-09-18T05:27:23.947Z,89.68
2017-09-18T05:27:50.692Z,90.07
2017-09-18T05:27:58.424Z,88.70
2017-09-18T05:28:11.959Z,89.57
2017-09-18T05:28:20.504Z,89.33
2017-09-18T05:28:29.009Z,89.91
2017-09-18T05:28:36.785Z,89.30
2017-09-18T05:28:51.841Z,89.57
2017-09-18T05:29:04.894Z,90.47
2017-09-18T05:29:19.769Z,89.68
2017-09-18T05:29:44.641Z,89.96
2017-09-18T05:30:06.220Z,90.25
2017-09-18T05:30:14.114Z,89.41
2017-09-18T05:30:32.487Z,90.07
2017-09-18T05:30:44.660Z,89.82
2017-09-18T05:31:02.715Z,89.28
2017-09-18T05:31:16.687Z,89.45
2017-09-18T05:31:24.910Z,89.46
2017-09-18T05:31:46.994Z,89.35
2017-09-18T05:32:00.625Z,90.34
2017-09-18T05:32:15.709Z,89.45
2017-09-18T05:32:23.134Z,89.63
2017-09-18T05:32:31.290Z,89.47
2017-09-18T05:32:49.553Z,89.55
2017-09-18T05:33:07.725Z,89.55
2017-09-18T05:33:26.067Z,91.03
2017-09-18T05:33:51.250Z,89.66
2017-09-18T05:34:06.739Z,89.88
2017-09-18T05:34:18.569Z,90.11
2017-09-18T05:34:34.523Z,89.82
2017-09-18T05:34:43.716Z,90.44
2017-09-18T05:34:51.657Z,90.25
2017-09-18T05:34:59.429Z,90.59
2017-09-18T05:35:08.131Z,90.44
2017-09-18T05:35:29.134Z,90.25
2017-09-18T05:35:37.839Z,90.83
2017-09-18T05:35:46.370Z,90.14
2017-09-18T05:36:03.062Z,89.90
2017-09-18T05:36:11.101Z,91.17
2017-09-18T05:36:29.066Z,91.08
2017-09-18T05:36:46.214Z,90.81
2017-09-18T05:36:53.564Z,91.11
2017-09-18T05:37:09.218Z,89.63
2017-09-18T05:37:27.669Z,90.49
2017-09-18T05:37:43.519Z,90.90
2017-09-18T05:38:08.893Z,91.09
2017-09-18T05:38:32.023Z,91.22
2017-09-18T05:38:39.673Z,91.26
2017-09-18T05:38:54.193Z,91.12
2017-09-18T05:39:02.693Z,90.67
2017-09-18T05:39:21.733Z,91.07
2017-09-18T05:39:33.289Z,91.17
2017-09-18T05:39:49.643Z,91.03
2017-09-18T05:40:01.801Z,91.12
2017-09-18T05:40:18.337Z,91.13
2017-09-18T05:40:25.591Z,90.93
2017-09-18T05:40:42.483Z,91.06
2017-09-18T05:40:51.100Z,90.63
2017-09-18T05:40:59.067Z,90.59
2017-09-18T05:41:07.545Z,91.33
2017-09-18T05:41:21.084Z,91.05
2017-09-18T05:41:29.479Z,91.12
2017-09-18T05:41:55.666Z,89.78
2017-09-18T05:42:04.845Z,90.64
2017-09-18T05:42:15.792Z,90.17
2017-09-18T05:42:35.479Z,90.24
2017-09-18T05:42:44.234Z,89.57
2017-09-18T05:42:52.169Z,89.76
2017-09-18T05:43:00.513Z,89.94
2017-09-18T05:43:12.360Z,90.82
2017-09-18T05:43:30.738Z,90.51
2017-09-18T05:43:43.438Z,89.68
2017-09-18T05:43:57.686Z,90.32
2017-09-18T05:44:13.869Z,90.31
2017-09-18T05:44:29.715Z,91.07
2017-09-18T05:44:37.413Z,89.89
2017-09-18T05:44:51.919Z,91.17
2017-09-18T05:44:59.333Z,89.71
2017-09-18T05:45:15.195Z,89.69
2017-09-18T05:45:23.229Z,89.59
2017-09-18T05:45:31.372Z,89.86
2017-09-18T05:45:49.869Z,89.52
2017-09-18T05:46:02.326Z,89.55
2017-09-18T05:46:17.361Z,90.74
2017-09-18T05:46:26.005Z,89.73
2017-09-18T05:46:34.329Z,91.11
2017-09-18T05:46:52.218Z,90.22
2017-09-18T05:47:01.058Z,91.22
2017-09-18T05:47:30.187Z,90.41
2017-09-18T05:47:53.354Z,89.69
2017-09-18T05:48:17.143Z,89.63
2017-09-18T05:48:31.885Z,89.53
2017-09-18T05:48:48.457Z,89.99
2017-09-18T05:48:56.274Z,90.93
2017-09-18T05:49:04.259Z,89.42
2017-09-18T05:49:20.218Z,90.99
2017-09-18T05:49:28.079Z,90.36
2017-09-18T05:49:36.394Z,90.56
2017-09-18T05:50:06.254Z,89.88
2017-09-18T05:50:22.051Z,89.58
2017-09-18T05:50:29.877Z,90.43
2017-09-18T05:50:43.942Z,89.74
2017-09-18T05:50:52.533Z,89.67
2017-09-18T05:51:00.470Z,89.32
2017-09-18T05:51:08.230Z,90.20
2017-09-18T05:51:16.365Z,89.39
2017-09-18T05:51:30.754Z,89.29
2017-09-18T05:51:47.201Z,90.32
2017-09-18T05:52:06.066Z,89.50
2017-09-18T05:52:28.256Z,89.71
2017-09-18T05:52:36.741Z,89.45
2017-09-18T05:52:51.495Z,89.37
2017-09-18T05:53:09.716Z,89.75
2017-09-18T05:53:29.246Z,89.34
2017-09-18T05:53:49.459Z,88.97
2017-09-18T05:54:07.113Z,89.27
2017-09-18T05:54:25.453Z,89.73
2017-09-18T05:54:34.097Z,88.95
2017-09-18T05:54:46.659Z,89.27
2017-09-18T05:54:54.403Z,89.55
2017-09-18T05:55:19.978Z,89.05
2017-09-18T05:55:36.155Z,90.66
2017-09-18T05:55:57.021Z,89.67
2017-09-18T05:56:11.974Z,89.04
2017-09-18T05:56:29.282Z,90.13
2017-09-18T05:56:43.715Z,90.11
2017-09-18T05:57:06.189Z,89.58
2017-09-18T05:57:14.107Z,89.95
2017-09-18T05:57:27.470Z,89.55
2017-09-18T05:57:36.413Z,89.75
2017-09-18T05:57:44.145Z,88.80
2017-09-18T05:58:04.223Z,90.35
2017-09-18T05:58:12.657Z,89.49
2017-09-18T05:58:26.710Z,88.93
2017-09-18T05:58:48.094Z,89.58
2017-09-18T05:58:56.756Z,90.27
2017-09-18T05:59:12.977Z,89.18
2017-09-18T05:59:37.163Z,88.72
2017-09-18T05:59:54.358Z,89.59
2017-09-18T06:00:17.467Z,90.15
2017-09-18T06:00:35.506Z,88.85
2017-09-18T06:00:47.794Z,89.08
2017-09-18T06:00:56.059Z,90.22
2017-09-18T06:01:17.691Z,89.96
2017-09-18T06:01:33.762Z,90.45
2017-09-18T06:01:49.505Z,89.31
2017-09-18T06:02:06.179Z,90.04
2017-09-18T06:02:16.607Z,90.29
2017-09-18T06:02:34.355Z,89.40
2017-09-18T06:02:42.810Z,89.88
2017-09-18T06:02:56.966Z,89.15
2017-09-18T06:03:12.781Z,88.96
2017-09-18T06:03:21.601Z,88.70
2017-09-18T06:03:29.161Z,88.85
2017-09-18T06:03:37.492Z,88.79
2017-09-18T06:03:51.169Z,88.88
2017-09-18T06:04:07.132Z,88.95
2017-09-18T06:04:15.369Z,88.74
2017-09-18T06:04:23.309Z,88.78
2017-09-18T06:04:31.409Z,88.82
2017-09-18T06:04:39.750Z,89.28
2017-09-18T06:04:47.682Z,89.38
2017-09-18T06:04:55.814Z,88.72
2017-09-18T06:05:03.785Z,88.75
2017-09-18T06:05:18.897Z,88.74
2017-09-18T06:05:40.209Z,90.24
2017-09-18T06:05:55.531Z,88.85
2017-09-18T06:06:03.959Z,88.67
2017-09-18T06:06:15.794Z,88.65
2017-09-18T06:06:24.038Z,89.50
2017-09-18T06:06:38.125Z,89.69
2017-09-18T06:06:46.737Z,89.15
2017-09-18T06:06:54.485Z,88.49
2017-09-18T06:07:10.365Z,89.36
2017-09-18T06:07:20.063Z,89.46
2017-09-18T06:07:30.567Z,88.53
2017-09-18T06:07:53.775Z,88.46
2017-09-18T06:08:12.575Z,88.58
2017-09-18T06:08:29.735Z,88.51
2017-09-18T06:08:59.715Z,88.58
2017-09-18T06:09:07.117Z,88.95
2017-09-18T06:09:15.647Z,89.57
2017-09-18T06:09:32.139Z,89.03
2017-09-18T06:09:50.322Z,89.52
2017-09-18T06:10:03.966Z,88.92
2017-09-18T06:10:22.429Z,89.15
2017-09-18T06:10:36.384Z,89.22
2017-09-18T06:10:44.629Z,89.32
2017-09-18T06:10:52.567Z,88.99
2017-09-18T06:11:09.826Z,90.02
2017-09-18T06:11:18.092Z,88.96
2017-09-18T06:11:30.959Z,88.85
2017-09-18T06:11:43.673Z,89.55
2017-09-18T06:12:02.690Z,89.07
2017-09-18T06:12:11.383Z,88.83
2017-09-18T06:12:33.985Z,88.99
2017-09-18T06:12:42.627Z,89.08
2017-09-18T06:12:50.964Z,89.11
2017-09-18T06:12:59.643Z,89.34
2017-09-18T06:13:43.667Z,89.06
2017-09-18T06:14:00.378Z,89.85
2017-09-18T06:14:24.051Z,89.24
2017-09-18T06:14:35.926Z,88.57
2017-09-18T06:15:00.849Z,88.43
2017-09-18T06:15:15.566Z,89.97
2017-09-18T06:15:31.821Z,89.53
2017-09-18T06:15:53.670Z,89.38
2017-09-18T06:16:01.947Z,90.20
2017-09-18T06:16:17.789Z,89.16
2017-09-18T06:16:34.671Z,89.71
2017-09-18T06:16:42.790Z,89.24
2017-09-18T06:16:56.970Z,89.35
2017-09-18T06:17:14.682Z,89.28
2017-09-18T06:17:34.912Z,89.37
2017-09-18T06:17:49.174Z,88.98
2017-09-18T06:18:02.058Z,89.83
2017-09-18T06:18:14.422Z,89.52
2017-09-18T06:18:33.153Z,88.74
2017-09-18T06:18:48.083Z,88.43
2017-09-18T06:18:55.466Z,89.97
2017-09-18T06:19:03.632Z,90.23
2017-09-18T06:19:11.735Z,90.10
2017-09-18T06:19:26.990Z,89.86
2017-09-18T06:19:35.442Z,90.12
2017-09-18T06:19:53.368Z,88.53
2017-09-18T06:20:07.429Z,89.07
2017-09-18T06:20:22.855Z,89.08
2017-09-18T06:20:32.787Z,88.97
2017-09-18T06:20:49.033Z,89.30
2017-09-18T06:21:05.827Z,89.95
2017-09-18T06:23:55.172Z,89.30
2017-09-18T06:25:27.113Z,89.70
2017-09-18T06:26:35.793Z,89.74
2017-09-18T06:27:04.098Z,89.93
2017-09-18T06:27:11.864Z,89.08
2017-09-18T06:27:31.118Z,88.41
2017-09-18T06:27:49.064Z,89.15
2017-09-18T06:28:01.025Z,90.05
2017-09-18T06:28:23.520Z,89.47
2017-09-18T06:28:40.861Z,89.98
2017-09-18T06:28:48.751Z,88.96
2017-09-18T06:29:11.535Z,89.86
2017-09-18T06:29:44.515Z,90.14
2017-09-18T06:29:52.022Z,88.52
2017-09-18T06:30:25.726Z,88.40
2017-09-18T06:30:53.978Z,88.44
2017-09-18T06:31:11.142Z,89.78
2017-09-18T06:31:43.639Z,89.24
2017-09-18T06:31:50.802Z,89.63
2017-09-18T06:32:07.208Z,88.72
2017-09-18T06:32:30.143Z,88.85
2017-09-18T06:32:47.222Z,88.71
2017-09-18T06:32:55.829Z,89.07
2017-09-18T06:33:14.490Z,88.26
2017-09-18T06:33:22.146Z,89.62
2017-09-18T06:33:30.690Z,89.45
2017-09-18T06:33:38.431Z,89.81
2017-09-18T06:34:03.874Z,88.71
2017-09-18T06:34:19.506Z,89.01
2017-09-18T06:34:38.309Z,89.74
2017-09-18T06:34:59.522Z,88.36
2017-09-18T06:35:24.073Z,88.08
2017-09-18T06:36:12.462Z,88.19
2017-09-18T06:36:57.902Z,89.57
2017-09-18T06:37:23.274Z,88.79
2017-09-18T06:37:56.186Z,89.60
2017-09-18T06:38:16.089Z,88.47
2017-09-18T06:38:24.737Z,87.97
2017-09-18T06:38:50.544Z,89.31
2017-09-18T06:39:00.527Z,89.10
2017-09-18T06:39:16.501Z,88.91
2017-09-18T06:39:24.942Z,88.55
2017-09-18T06:39:42.638Z,88.54
2017-09-18T06:40:03.982Z,89.04
2017-09-18T06:40:19.749Z,89.37
2017-09-18T06:40:40.829Z,88.89
2017-09-18T06:41:10.299Z,89.08
2017-09-18T06:41:22.514Z,88.84
2017-09-18T06:41:49.511Z,88.74
2017-09-18T06:42:03.178Z,89.24
2017-09-18T06:42:17.944Z,87.91
2017-09-18T06:42:26.762Z,88.93
2017-09-18T06:42:34.689Z,87.84
2017-09-18T06:43:24.889Z,87.91
2017-09-18T06:43:42.545Z,87.65
2017-09-18T06:43:59.717Z,88.27
2017-09-18T06:44:15.698Z,87.76
2017-09-18T06:44:34.629Z,88.27
2017-09-18T06:44:46.513Z,89.10
2017-09-18T06:44:56.246Z,87.81
2017-09-18T06:45:04.585Z,89.07
2017-09-18T06:45:12.522Z,88.89
2017-09-18T06:45:32.588Z,89.05
2017-09-18T06:45:47.254Z,88.09
2017-09-18T06:46:13.238Z,87.75
2017-09-18T06:46:30.873Z,88.01
2017-09-18T06:46:55.329Z,87.77
2017-09-18T06:47:08.393Z,89.12
2017-09-18T06:47:16.810Z,89.09
2017-09-18T06:47:38.817Z,89.14
2017-09-18T06:47:46.940Z,88.56
2017-09-18T06:47:54.901Z,88.72
2017-09-18T06:48:03.018Z,88.64
2017-09-18T06:48:11.162Z,88.13
2017-09-18T06:48:29.049Z,88.89
2017-09-18T06:48:36.269Z,88.57
2017-09-18T06:49:11.231Z,88.82
2017-09-18T06:49:35.428Z,88.20
2017-09-18T06:49:42.930Z,89.01
2017-09-18T06:49:51.274Z,88.77
2017-09-18T06:49:59.413Z,88.53
2017-09-18T06:50:07.338Z,88.91
2017-09-18T06:50:15.298Z,89.00
2017-09-18T06:50:30.523Z,89.09
2017-09-18T06:50:49.316Z,88.69
2017-09-18T06:50:57.770Z,88.68
2017-09-18T06:51:17.634Z,87.75
2017-09-18T06:51:30.006Z,88.08
2017-09-18T06:51:38.995Z,87.65
2017-09-18T06:51:54.913Z,88.61
2017-09-18T06:52:14.846Z,87.66
2017-09-18T06:52:22.889Z,88.94
2017-09-18T06:52:30.845Z,88.42
2017-09-18T06:52:39.166Z,88.71
2017-09-18T06:52:57.074Z,88.32
2017-09-18T06:53:16.839Z,87.94
2017-09-18T06:53:28.155Z,87.74
2017-09-18T06:53:36.590Z,88.53
2017-09-18T06:53:48.039Z,88.39
2017-09-18T06:54:06.213Z,88.58
2017-09-18T06:54:14.609Z,87.61
2017-09-18T06:54:40.809Z,88.65
2017-09-18T06:54:49.114Z,88.57
2017-09-18T06:54:59.533Z,87.58
2017-09-18T06:55:14.997Z,87.69
2017-09-18T06:55:22.944Z,88.44
2017-09-18T06:55:30.889Z,88.90
2017-09-18T06:56:10.775Z,88.53
2017-09-18T06:56:29.150Z,88.44
2017-09-18T06:56:44.309Z,88.80
2017-09-18T06:57:00.957Z,88.90
2017-09-18T06:57:08.469Z,87.51
2017-09-18T06:57:26.928Z,88.54
2017-09-18T06:58:12.055Z,88.80
2017-09-18T06:58:34.077Z,88.43
2017-09-18T06:58:51.851Z,88.01
2017-09-18T06:59:13.731Z,88.67
2017-09-18T06:59:30.626Z,88.50
2017-09-18T06:59:47.295Z,88.42
2017-09-18T07:00:04.759Z,88.48
2017-09-18T07:00:25.003Z,88.64
2017-09-18T07:00:49.503Z,88.60
2017-09-18T07:01:16.862Z,88.93
2017-09-18T07:01:36.126Z,87.99
2017-09-18T07:02:00.964Z,88.80
2017-09-18T07:02:46.482Z,88.88
2017-09-18T07:03:07.549Z,88.77
2017-09-18T07:03:14.989Z,88.99
2017-09-18T07:03:28.873Z,87.98
2017-09-18T07:03:37.101Z,88.33
2017-09-18T07:03:53.969Z,88.92
2017-09-18T07:04:02.851Z,89.07
2017-09-18T07:04:11.032Z,88.64
2017-09-18T07:04:25.010Z,88.48
2017-09-18T07:04:32.653Z,88.77
2017-09-18T07:04:48.438Z,89.10
2017-09-18T07:05:06.078Z,88.30
2017-09-18T07:05:23.254Z,88.49
2017-09-18T07:05:30.694Z,88.49
2017-09-18T07:05:46.098Z,89.14
2017-09-18T07:05:54.402Z,87.78
2017-09-18T07:06:11.305Z,87.76
2017-09-18T07:06:20.795Z,88.05
2017-09-18T07:06:40.958Z,89.16
2017-09-18T07:06:58.127Z,88.85
2017-09-18T07:07:10.293Z,88.78
2017-09-18T07:07:34.145Z,88.83
2017-09-18T07:07:41.488Z,87.93
2017-09-18T07:07:59.739Z,88.16
2017-09-18T07:08:08.386Z,88.16
2017-09-18T07:08:16.341Z,87.80
2017-09-18T07:08:30.405Z,88.54
2017-09-18T07:08:38.621Z,87.87
2017-09-18T07:08:56.554Z,89.43
2017-09-18T07:09:07.583Z,88.57
2017-09-18T07:09:22.298Z,88.49
2017-09-18T07:09:40.881Z,89.00
2017-09-18T07:09:49.414Z,88.31
2017-09-18T07:09:57.921Z,88.86
2017-09-18T07:10:05.691Z,88.33
2017-09-18T07:10:27.429Z,88.43
2017-09-18T07:10:41.912Z,88.90
2017-09-18T07:10:55.866Z,88.25
2017-09-18T07:11:03.713Z,88.88
2017-09-18T07:11:12.042Z,88.83
2017-09-18T07:11:25.955Z,88.56
2017-09-18T07:11:34.133Z,88.64
2017-09-18T07:11:51.540Z,88.81
2017-09-18T07:12:05.196Z,88.43
2017-09-18T07:12:19.649Z,88.89
2017-09-18T07:12:27.561Z,88.45
2017-09-18T07:12:35.321Z,88.32
2017-09-18T07:12:43.463Z,88.41
2017-09-18T07:12:53.404Z,88.35
2017-09-18T07:13:09.083Z,88.64
2017-09-18T07:13:17.100Z,88.45
2017-09-18T07:13:25.237Z,88.87
2017-09-18T07:13:40.942Z,88.27
2017-09-18T07:13:48.763Z,88.76
2017-09-18T07:13:56.905Z,88.41
2017-09-18T07:14:11.778Z,88.42
2017-09-18T07:14:26.114Z,88.41
2017-09-18T07:14:34.553Z,88.41
2017-09-18T07:14:42.701Z,88.43
2017-09-18T07:14:58.251Z,88.53
2017-09-18T07:15:19.313Z,88.49
2017-09-18T07:15:35.697Z,88.23
2017-09-18T07:15:50.857Z,88.30
2017-09-18T07:16:06.717Z,88.92
2017-09-18T07:16:17.946Z,88.73
2017-09-18T07:16:27.615Z,88.99
2017-09-18T07:16:46.458Z,88.54
2017-09-18T07:16:58.218Z,88.76
2017-09-18T07:17:14.695Z,88.79
2017-09-18T07:17:25.733Z,88.46
2017-09-18T07:17:34.750Z,88.81
2017-09-18T07:17:49.236Z,88.36
2017-09-18T07:18:03.290Z,88.35
2017-09-18T07:18:12.951Z,88.57
2017-09-18T07:20:07.354Z,88.40
2017-09-18T07:20:25.686Z,88.52
2017-09-18T07:20:44.142Z,88.61
2017-09-18T07:20:52.294Z,88.43
2017-09-18T07:21:15.358Z,88.52
2017-09-18T07:21:24.185Z,88.47
2017-09-18T07:21:38.941Z,88.53
2017-09-18T07:21:46.642Z,88.59
2017-09-18T07:22:28.503Z,88.50
2017-09-18T07:22:40.717Z,88.93
2017-09-18T07:22:54.105Z,88.54
2017-09-18T07:23:23.587Z,88.75
2017-09-18T07:23:40.402Z,88.94
2017-09-18T07:23:54.587Z,88.47
2017-09-18T07:24:13.750Z,89.04
2017-09-18T07:24:32.410Z,89.26
2017-09-18T07:24:47.466Z,87.77
2017-09-18T07:24:56.281Z,89.36
2017-09-18T07:25:04.256Z,89.14
2017-09-18T07:25:47.633Z,89.06
2017-09-18T07:26:08.462Z,88.65
2017-09-18T07:26:42.859Z,88.64
2017-09-18T07:27:01.326Z,88.60
2017-09-18T07:27:10.138Z,88.43
2017-09-18T07:27:25.425Z,88.53
2017-09-18T07:27:33.266Z,88.42
2017-09-18T07:27:49.626Z,88.64
2017-09-18T07:28:02.302Z,88.31
2017-09-18T07:28:20.865Z,88.32
2017-09-18T07:28:35.850Z,88.55
2017-09-18T07:28:57.987Z,88.46
2017-09-18T07:29:12.434Z,88.20
2017-09-18T07:29:54.445Z,88.37
2017-09-18T07:30:02.558Z,88.31
2017-09-18T07:30:17.714Z,88.33
2017-09-18T07:30:27.082Z,88.03
2017-09-18T07:30:36.076Z,88.24
2017-09-18T07:31:02.453Z,88.18
2017-09-18T07:31:18.919Z,88.22
2017-09-18T07:31:41.933Z,88.01
2017-09-18T07:31:52.092Z,88.08
2017-09-18T07:32:03.039Z,88.25
2017-09-18T07:32:20.224Z,88.02
2017-09-18T07:32:40.978Z,88.02
2017-09-18T07:32:56.907Z,88.00
2017-09-18T07:33:07.266Z,88.30
2017-09-18T07:33:15.725Z,88.07
2017-09-18T07:33:35.925Z,88.24
2017-09-18T07:33:44.242Z,87.77
2017-09-18T07:33:59.593Z,88.01
2017-09-18T07:34:27.513Z,88.23
2017-09-18T07:34:46.874Z,88.12
2017-09-18T07:35:05.709Z,88.14
2017-09-18T07:35:23.381Z,87.84
2017-09-18T07:35:35.745Z,87.95
2017-09-18T07:35:58.401Z,88.24
2017-09-18T07:36:11.473Z,87.96
2017-09-18T07:36:25.843Z,88.66
2017-09-18T07:36:42.010Z,87.67
2017-09-18T07:36:50.219Z,88.64
2017-09-18T07:36:58.586Z,87.41
2017-09-18T07:37:06.511Z,88.50
2017-09-18T07:37:21.826Z,87.54
2017-09-18T07:37:31.840Z,87.40
2017-09-18T07:37:49.949Z,87.93
2017-09-18T07:37:58.946Z,87.96
2017-09-18T07:38:08.560Z,88.29
2017-09-18T07:38:18.338Z,88.03
2017-09-18T07:38:26.161Z,87.46
2017-09-18T07:38:34.272Z,87.86
2017-09-18T07:38:42.402Z,88.13
2017-09-18T07:38:57.282Z,88.13
2017-09-18T07:39:13.605Z,87.93
2017-09-18T07:39:31.790Z,88.04
2017-09-18T07:39:46.741Z,87.66
2017-09-18T07:40:05.899Z,87.89
2017-09-18T07:40:25.910Z,87.72
2017-09-18T07:40:35.504Z,88.45
2017-09-18T07:40:45.280Z,87.96
2017-09-18T07:40:54.839Z,88.04
2017-09-18T07:41:08.057Z,88.06
2017-09-18T07:41:16.726Z,87.98
2017-09-18T07:41:31.840Z,87.94
2017-09-18T07:41:40.760Z,88.09
2017-09-18T07:41:50.203Z,88.51
2017-09-18T07:41:58.752Z,88.08
2017-09-18T07:42:08.483Z,87.95
2017-09-18T07:42:17.850Z,88.04
2017-09-18T07:42:32.124Z,87.88
2017-09-18T07:42:46.974Z,88.29
2017-09-18T07:42:55.619Z,87.88
2017-09-18T07:43:10.313Z,87.72
2017-09-18T07:43:23.690Z,87.77
2017-09-18T07:43:51.078Z,87.71
2017-09-18T07:43:58.606Z,87.90
2017-09-18T07:44:12.441Z,87.82
2017-09-18T07:44:29.619Z,88.16
2017-09-18T07:44:47.493Z,88.14
2017-09-18T07:45:16.785Z,88.12
2017-09-18T07:45:29.041Z,88.04
2017-09-18T07:45:37.158Z,88.21
2017-09-18T07:45:57.198Z,87.68
2017-09-18T07:46:05.666Z,88.15
2017-09-18T07:46:13.989Z,88.14
2017-09-18T07:46:31.211Z,87.75
2017-09-18T07:46:48.809Z,88.14
2017-09-18T07:47:03.177Z,87.88
2017-09-18T07:47:12.022Z,88.07
2017-09-18T07:47:25.409Z,87.89
2017-09-18T07:47:40.665Z,87.60
2017-09-18T07:47:47.901Z,87.49
2017-09-18T07:48:09.433Z,87.89
2017-09-18T07:48:18.210Z,87.75
2017-09-18T07:48:41.570Z,87.56
2017-09-18T07:48:49.709Z,87.89
2017-09-18T07:48:58.057Z,88.09
2017-09-18T07:49:05.975Z,87.49
2017-09-18T07:49:20.909Z,87.53
2017-09-18T07:49:29.974Z,87.78
2017-09-18T07:49:43.345Z,87.53
2017-09-18T07:50:02.509Z,87.72
2017-09-18T07:50:20.397Z,88.07
2017-09-18T07:50:29.843Z,87.81
2017-09-18T07:50:43.285Z,86.72
2017-09-18T07:51:01.681Z,87.54
2017-09-18T07:51:15.112Z,87.65
2017-09-18T07:51:31.782Z,87.76
2017-09-18T07:51:39.729Z,87.56
2017-09-18T07:51:48.245Z,87.86
2017-09-18T07:52:03.713Z,87.36
2017-09-18T07:52:12.109Z,87.27
2017-09-18T07:52:19.882Z,87.66
2017-09-18T07:52:27.820Z,87.37
2017-09-18T07:52:35.957Z,87.39
2017-09-18T07:52:47.861Z,87.43
2017-09-18T07:52:56.472Z,87.39
2017-09-18T07:53:04.606Z,87.07
2017-09-18T07:53:12.938Z,86.47
2017-09-18T07:53:26.190Z,87.30
2017-09-18T07:53:35.088Z,87.38
2017-09-18T07:53:48.512Z,87.29
2017-09-18T07:53:56.933Z,87.88
2017-09-18T07:54:09.512Z,86.71
2017-09-18T07:54:26.690Z,87.47
2017-09-18T07:54:41.022Z,86.57
2017-09-18T07:54:49.158Z,87.48
2017-09-18T07:54:57.293Z,87.37
2017-09-18T07:55:09.199Z,87.14
2017-09-18T07:55:22.037Z,87.32
2017-09-18T07:55:30.397Z,87.34
2017-09-18T07:55:47.049Z,87.26
2017-09-18T07:56:06.821Z,87.14
2017-09-18T07:56:20.969Z,87.06
2017-09-18T07:56:33.937Z,87.26
2017-09-18T07:56:42.166Z,86.74
2017-09-18T07:57:04.561Z,86.86
2017-09-18T07:57:22.393Z,87.12
2017-09-18T07:57:38.101Z,86.98
2017-09-18T07:57:55.766Z,86.99
2017-09-18T07:58:14.053Z,86.81
2017-09-18T07:58:22.770Z,87.15
2017-09-18T07:58:32.476Z,86.85
2017-09-18T07:58:42.168Z,87.02
2017-09-18T07:58:50.251Z,86.84
2017-09-18T07:58:58.335Z,87.04
2017-09-18T07:59:06.510Z,86.76
2017-09-18T07:59:19.557Z,87.00
2017-09-18T07:59:32.278Z,86.40
2017-09-18T07:59:42.930Z,87.07